Hlavní strana
METAR-TAF:

METAR-TAF

Letiště :

Berlín, Německo

Letiště Berlín-Tegel

zeměpisná šířka: 52-34N, zeměpisná délka: 013-19E, výška: 37 m

Aktuální stav počasí

Zpráva byla vytvořena před 15 minutami, v 18:50 UTC
Západoseverozápadní vítr 4 kt
Teplota 16°C
Vlhkost vzduchu 55%
Tlak 1013 hPa
Viditelnost 10 km a více
Žádná oblačnost pod 1500 m, nevyskytují se cumulonimby.

METAR: EDDT 231850Z 29004KT CAVOK 16/07 Q1013 NOSIG

Čas: 21:05 (19:05 UTC)

Předpověď počasí

Zpráva byla vytvořena před 2 hodinami a 5 minutami, v 17:00 UTC
Předpověď platná od 23 v 18 UTC do 24 v 18 UTC
Západní vítr 12 kt
Viditelnost 10 km a více
Skoro jasno ve výšce 4500 ft
Změna
od 23 v 18 UTC do 23 v 20 UTC
Západoseverozápadní vítr 6 kt
Změna
od 24 v 07 UTC do 24 v 09 UTC
Západní vítr 14 kt
Dočasný
od 24 v 09 UTC do 24 v 18 UTC
Západní vítr 15 kt s nárazy do 25 kt

TAF: EDDT 231700Z 2318/2418 28012KT 9999 FEW045 BECMG 2318/2320 29006KT BECMG 2407/2409 26014KT TEMPO 2409/2418 27015G25KT

Stav a předpovědi počasí z více než 4 000 letišť (zprávy METAR a TAF).

Červené a žluté tečky na mapě představují dostupné meteorologické stanice.

Když kurzor umístíte na tečku, zobrazí se název stanice.

Pak kliknutím zobrazíte stav a předpověď počasí.

Chcete-li změnit mapu, kliknutím na zelené tlačítko se znaménkem +mapu přiblížíte, kliknutím na zelené tlačítko se znaménkem – mapu oddálíte a kliknutím na zelené šipky přejdete na sousední mapy.


METAR-TAF: